createdAt,value
2023-03-24T00:14:02.695Z,11.24
2023-03-24T00:29:07.454Z,11.38
2023-03-24T00:44:17.798Z,11.38
2023-03-24T00:59:21.410Z,11.43
2023-03-24T01:14:24.267Z,11.57
2023-03-24T01:29:27.032Z,11.61
2023-03-24T01:44:36.958Z,11.65
2023-03-24T01:59:45.335Z,11.88
2023-03-24T02:14:48.395Z,12.25
2023-03-24T02:30:12.508Z,12.64
2023-03-24T02:45:33.870Z,12.84
2023-03-24T03:00:47.861Z,12.93
2023-03-24T03:15:56.084Z,13.00
2023-03-24T03:31:07.090Z,12.97
2023-03-24T03:46:09.732Z,12.90
2023-03-24T04:01:18.772Z,12.91
2023-03-24T04:16:37.100Z,12.95
2023-03-24T04:32:09.154Z,12.94
2023-03-24T04:47:12.761Z,12.87
2023-03-24T05:02:15.628Z,12.79
2023-03-24T05:17:18.626Z,12.77
2023-03-24T05:32:23.421Z,12.83
2023-03-24T05:47:27.381Z,13.00
2023-03-24T06:02:30.323Z,13.25
2023-03-24T06:17:33.894Z,13.54
2023-03-24T06:32:36.653Z,13.85
2023-03-24T06:47:39.512Z,14.24
2023-03-24T07:02:42.866Z,14.48
2023-03-24T07:17:46.175Z,15.12
2023-03-24T07:32:49.326Z,15.32
2023-03-24T07:47:52.370Z,15.47
2023-03-24T08:02:55.796Z,15.42
2023-03-24T08:17:58.679Z,15.13
2023-03-24T08:33:02.976Z,14.70
2023-03-24T08:48:08.120Z,14.86
2023-03-24T09:03:14.563Z,16.78
2023-03-24T09:18:18.526Z,17.31
2023-03-24T09:33:21.231Z,17.44
2023-03-24T09:48:46.223Z,17.69
2023-03-24T10:03:49.005Z,18.11
2023-03-24T10:19:16.632Z,18.32
2023-03-24T10:34:19.790Z,18.55
2023-03-24T10:49:23.664Z,19.95
2023-03-24T11:04:28.759Z,21.50
2023-03-24T11:19:32.708Z,21.71
2023-03-24T11:34:42.205Z,20.25
2023-03-24T11:49:51.567Z,19.97
2023-03-24T12:05:12.875Z,19.87
2023-03-24T12:20:31.116Z,19.68
2023-03-24T12:36:04.923Z,19.37
2023-03-24T12:51:35.371Z,19.03
2023-03-24T13:06:47.115Z,18.67
2023-03-24T13:21:53.080Z,18.54
2023-03-24T13:37:03.932Z,18.41
2023-03-24T13:52:28.041Z,18.01
2023-03-24T14:07:39.595Z,17.76
2023-03-24T14:22:48.372Z,17.53
2023-03-24T14:37:57.512Z,17.57
2023-03-24T14:53:03.166Z,17.93
2023-03-24T15:08:18.876Z,18.07
2023-03-24T15:23:24.289Z,18.41
2023-03-24T15:38:32.750Z,18.44
2023-03-24T15:53:45.835Z,18.56
2023-03-24T16:08:49.714Z,18.39
2023-03-24T16:23:54.307Z,18.13
2023-03-24T16:38:58.892Z,17.91
2023-03-24T16:54:01.982Z,17.66
2023-03-24T17:09:06.125Z,17.19
2023-03-24T17:24:10.642Z,16.80
2023-03-24T17:39:16.686Z,16.72
2023-03-24T17:54:21.247Z,16.75
2023-03-24T18:09:23.949Z,14.95
2023-03-24T18:24:26.444Z,13.63
2023-03-24T18:39:29.002Z,13.09
2023-03-24T18:54:31.822Z,12.69
2023-03-24T19:09:34.470Z,12.27
2023-03-24T19:24:37.053Z,11.92
2023-03-24T19:39:39.711Z,11.65
2023-03-24T19:54:42.473Z,11.39
2023-03-24T20:09:45.367Z,11.26
2023-03-24T20:24:48.382Z,11.08
2023-03-24T20:39:51.953Z,10.94
2023-03-24T20:54:54.842Z,10.74
2023-03-24T21:09:57.456Z,10.48
2023-03-24T21:25:00.362Z,10.23
2023-03-24T21:40:03.445Z,9.99
2023-03-24T21:55:06.970Z,10.04
2023-03-24T22:10:13.478Z,10.17
2023-03-24T22:25:18.306Z,10.22
2023-03-24T22:40:21.487Z,10.12
2023-03-24T22:55:25.972Z,9.96
2023-03-24T23:10:28.585Z,9.88
2023-03-24T23:25:31.369Z,9.75
2023-03-24T23:40:34.123Z,9.66
2023-03-24T23:55:36.838Z,9.46
